Time;durP1;ratioP1;P1;durP2;ratioP2;P2;SDS_P1;SDS_P2;PMS_P1;PMS_P2;Temp;Humidity;BMP_temperature;BMP_pressure;BME280_temperature;BME280_humidity;BME280_pressure;Samples;Min_cycle;Max_cycle;Signal;HPM_P1;HPM_P2
2021/03/17 00:01:06;;;;;;;14.23;9.60;;;;;;;0.66;94.65;96617.22;5075312;28;20472;-77
2021/03/17 00:03:50;;;;;;;16.67;10.07;;;;;;;0.67;94.48;96619.72;5069498;28;20421;-77
2021/03/17 00:06:34;;;;;;;13.67;9.73;;;;;;;0.69;94.82;96606.69;5080315;28;20448;-77
2021/03/17 00:09:18;;;;;;;13.45;9.30;;;;;;;0.68;94.58;96611.03;5077972;28;21236;-77
2021/03/17 00:12:03;;;;;;;13.53;9.30;;;;;;;0.58;94.34;96609.91;5094599;28;20043;-77
2021/03/17 00:14:47;;;;;;;13.87;9.23;;;;;;;0.60;94.84;96613.22;5087629;28;20462;-77
2021/03/17 00:17:31;;;;;;;;;;;;;;;0.55;94.38;96614.41;5081348;28;20422;-77
2021/03/17 00:20:16;;;;;;;13.60;8.48;;;;;;;0.48;94.10;96611.34;5089670;28;19919;-77
2021/03/17 00:23:00;;;;;;;12.67;8.47;;;;;;;0.47;94.46;96614.88;5063797;28;20099;-77
2021/03/17 00:25:45;;;;;;;13.43;8.60;;;;;;;0.56;94.53;96611.72;5094043;28;20433;-77
2021/03/17 00:28:29;;;;;;;11.40;7.77;;;;;;;0.51;94.41;96605.16;5078313;28;20513;-76
2021/03/17 00:31:13;;;;;;;;;;;;;;;0.43;94.21;96603.00;5085005;28;20604;-77
2021/03/17 00:33:57;;;;;;;12.68;8.48;;;;;;;0.35;94.39;96610.38;5083915;28;19974;-76
2021/03/17 00:36:42;;;;;;;12.07;8.40;;;;;;;0.38;94.43;96610.22;5081105;28;21293;-78
2021/03/17 00:39:26;;;;;;;13.13;9.03;;;;;;;0.36;94.62;96610.28;5073121;28;20541;-78
2021/03/17 00:42:12;;;;;;;15.67;9.63;;;;;;;0.37;94.95;96600.75;5066553;28;20466;-78
2021/03/17 00:44:57;;;;;;;13.60;9.30;;;;;;;0.35;94.30;96608.63;5071703;28;20491;-78
2021/03/17 00:47:41;;;;;;;12.20;8.87;;;;;;;0.36;94.19;96609.44;5102419;28;20531;-78
2021/03/17 00:50:12;;;;;;;13.17;9.43;;;;;;;0.31;94.73;96607.13;5074789;28;20503;-77
2021/03/17 00:52:38;;;;;;;14.93;9.83;;;;;;;0.33;94.71;96604.44;5076677;28;20466;-77
2021/03/17 00:55:10;;;;;;;14.00;10.47;;;;;;;0.37;94.85;96603.34;5091818;28;20516;-79
2021/03/17 00:57:53;;;;;;;14.20;9.67;;;;;;;0.45;94.46;96602.00;5072110;28;20550;-78
2021/03/17 01:00:20;;;;;;;14.10;9.97;;;;;;;0.35;94.49;96606.03;5060135;28;20457;-77
2021/03/17 01:02:46;;;;;;;13.77;9.77;;;;;;;0.41;94.62;96600.50;5081144;28;20458;-77
2021/03/17 01:05:12;;;;;;;14.90;10.63;;;;;;;0.50;94.33;96595.72;5078662;28;20115;-77
2021/03/17 01:07:38;;;;;;;14.53;9.43;;;;;;;0.47;95.00;96592.41;5084263;28;20029;-77
2021/03/17 01:10:19;;;;;;;15.23;10.10;;;;;;;0.45;94.36;96596.81;5081745;28;20526;-77
2021/03/17 01:12:45;;;;;;;13.53;8.10;;;;;;;0.42;94.58;96589.22;5085175;28;20025;-77
2021/03/17 01:15:14;;;;;;;13.50;8.93;;;;;;;0.42;94.29;96586.66;5072432;28;20487;-77
2021/03/17 01:17:40;;;;;;;11.80;8.03;;;;;;;0.48;94.29;96593.22;5061502;28;21118;-77
2021/03/17 01:20:07;;;;;;;12.13;7.73;;;;;;;0.39;94.58;96588.59;5083052;28;20461;-77
2021/03/17 01:22:33;;;;;;;10.37;7.30;;;;;;;0.51;94.70;96587.06;5076291;28;20475;-77
2021/03/17 01:24:59;;;;;;;10.23;7.07;;;;;;;0.42;94.14;96584.06;5075178;28;20509;-77
2021/03/17 01:27:25;;;;;;;11.53;8.27;;;;;;;0.43;94.49;96579.72;5075729;28;20983;-77
2021/03/17 01:29:50;;;;;;;12.37;7.80;;;;;;;0.39;94.74;96575.66;5083880;28;20560;-79
2021/03/17 01:32:16;;;;;;;12.57;8.63;;;;;;;0.40;95.17;96580.75;5072249;28;20808;-78
2021/03/17 01:34:42;;;;;;;12.00;8.00;;;;;;;0.42;95.03;96578.88;5064809;28;20043;-77
2021/03/17 01:37:07;;;;;;;12.30;8.40;;;;;;;0.51;94.87;96577.53;5072723;28;20397;-77
2021/03/17 01:39:33;;;;;;;13.13;8.33;;;;;;;0.42;94.86;96578.06;5058942;28;20033;-77
2021/03/17 01:41:59;;;;;;;11.10;7.63;;;;;;;0.46;94.83;96569.19;5067406;28;20013;-80
2021/03/17 01:44:25;;;;;;;11.00;8.23;;;;;;;0.45;94.48;96562.34;5092871;28;20581;-79
2021/03/17 01:46:50;;;;;;;12.63;8.87;;;;;;;0.47;94.92;96565.72;5074326;28;20115;-77
2021/03/17 01:49:16;;;;;;;12.90;8.60;;;;;;;0.51;94.74;96556.84;5076420;28;20137;-76
2021/03/17 01:51:42;;;;;;;13.10;8.87;;;;;;;0.49;94.65;96555.25;5081273;28;20656;-77
2021/03/17 01:54:08;;;;;;;12.33;8.17;;;;;;;0.50;94.94;96549.97;5090536;28;20032;-77
2021/03/17 01:56:33;;;;;;;12.57;8.60;;;;;;;0.50;95.16;96549.16;5072947;28;20120;-77
2021/03/17 01:59:00;;;;;;;13.03;8.47;;;;;;;0.49;94.81;96550.06;5072744;28;20028;-78
2021/03/17 02:01:27;;;;;;;12.77;9.23;;;;;;;0.50;95.44;96549.97;5078272;28;20028;-77
2021/03/17 02:03:52;;;;;;;14.30;8.97;;;;;;;0.55;94.63;96542.78;5075086;28;20512;-77
2021/03/17 02:06:18;;;;;;;12.43;8.83;;;;;;;0.49;95.03;96542.31;5068657;28;20471;-77
2021/03/17 02:08:44;;;;;;;15.57;9.60;;;;;;;0.48;94.97;96549.25;5076987;28;20078;-77
2021/03/17 02:11:12;;;;;;;14.47;9.57;;;;;;;0.50;94.50;96539.63;5071230;28;20040;-77
2021/03/17 02:13:51;;;;;;;12.77;9.23;;;;;;;0.55;95.02;96539.38;5069643;28;20376;-77
2021/03/17 02:16:40;;;;;;;13.17;8.70;;;;;;;0.55;95.09;96547.13;5075599;28;20492;-77
2021/03/17 02:19:05;;;;;;;17.03;10.47;;;;;;;0.57;94.69;96550.44;5070525;28;20451;-77
2021/03/17 02:22:08;;;;;;;14.80;9.90;;;;;;;0.52;94.44;96547.31;5083827;28;21031;-76
2021/03/17 02:24:45;;;;;;;20.03;10.70;;;;;;;0.46;94.58;96551.06;5073089;28;20416;-77
2021/03/17 02:27:22;;;;;;;15.40;10.07;;;;;;;0.50;95.14;96549.16;5072657;28;20520;-77
2021/03/17 02:30:19;;;;;;;17.83;10.63;;;;;;;0.46;94.81;96538.13;5078708;28;20466;-79
2021/03/17 02:33:07;;;;;;;20.73;11.97;;;;;;;0.45;95.39;96542.50;5043698;28;20470;-77
2021/03/17 02:35:35;;;;;;;17.20;10.50;;;;;;;0.50;95.24;96541.38;5068995;28;20451;-78
2021/03/17 02:38:03;;;;;;;17.20;11.87;;;;;;;0.49;95.64;96543.13;5075455;28;20453;-78
2021/03/17 02:40:39;;;;;;;19.00;12.20;;;;;;;0.50;95.52;96549.97;5076785;28;20467;-77
2021/03/17 02:43:24;;;;;;;16.90;11.03;;;;;;;0.56;95.44;96544.44;5064593;28;20451;-77
2021/03/17 02:46:07;;;;;;;20.87;11.13;;;;;;;0.50;95.16;96538.78;5075609;28;20477;-77
2021/03/17 02:48:41;;;;;;;16.67;11.60;;;;;;;0.42;94.77;96549.59;5076123;28;20470;-77
2021/03/17 02:51:15;;;;;;;16.53;10.77;;;;;;;0.57;95.45;96545.28;5072727;28;20860;-77
2021/03/17 02:53:42;;;;;;;;;;;;;;;0.56;95.26;96548.78;5081833;28;20873;-78
2021/03/17 02:56:11;;;;;;;15.17;9.67;;;;;;;0.54;95.53;96548.91;5081409;28;19973;-77
2021/03/17 02:58:41;;;;;;;18.43;11.20;;;;;;;0.56;95.49;96552.19;5090969;28;20467;-78
2021/03/17 03:01:08;;;;;;;17.63;10.77;;;;;;;0.52;95.66;96548.13;5087988;28;20485;-78
2021/03/17 03:03:36;;;;;;;18.83;11.57;;;;;;;0.54;95.26;96538.53;5075475;28;21007;-77
2021/03/17 03:06:03;;;;;;;16.87;11.30;;;;;;;0.53;94.94;96549.78;5080836;28;20449;-79
2021/03/17 03:08:29;;;;;;;18.97;11.33;;;;;;;0.59;95.49;96543.44;5078370;28;20451;-78
2021/03/17 03:10:56;;;;;;;19.80;11.23;;;;;;;0.47;95.81;96545.00;5074460;28;20928;-77
2021/03/17 03:13:26;;;;;;;22.23;12.00;;;;;;;0.49;96.14;96543.13;5074985;28;20492;-79
2021/03/17 03:15:56;;;;;;;18.37;11.27;;;;;;;0.52;95.46;96542.97;5064133;28;20468;-79
2021/03/17 03:18:24;;;;;;;22.43;12.77;;;;;;;0.56;96.04;96544.44;5063346;28;20463;-76
2021/03/17 03:20:52;;;;;;;22.03;12.73;;;;;;;0.52;96.14;96553.31;5064736;28;20450;-77
2021/03/17 03:23:23;;;;;;;21.07;13.50;;;;;;;0.58;95.92;96542.59;5059475;28;20470;-79
2021/03/17 03:25:50;;;;;;;25.50;13.17;;;;;;;0.44;95.83;96550.34;5068415;28;20823;-77
2021/03/17 03:28:19;;;;;;;20.33;12.77;;;;;;;0.44;95.96;96542.59;5081716;28;20453;-78
2021/03/17 03:30:48;;;;;;;20.10;12.67;;;;;;;0.52;95.33;96542.97;5066284;28;20434;-78
2021/03/17 03:33:14;;;;;;;21.40;12.83;;;;;;;0.59;95.85;96544.25;5075304;28;20454;-77
2021/03/17 03:35:41;;;;;;;19.60;12.70;;;;;;;0.50;95.69;96537.03;5068321;28;20886;-77
2021/03/17 03:38:09;;;;;;;20.70;12.87;;;;;;;0.56;95.69;96544.44;5056869;28;20458;-79
2021/03/17 03:40:35;;;;;;;21.03;13.80;;;;;;;0.49;96.08;96542.31;5070864;28;20451;-77
2021/03/17 03:43:01;;;;;;;22.07;13.77;;;;;;;0.59;95.83;96539.09;5087936;28;20501;-78
2021/03/17 03:45:27;;;;;;;20.97;13.13;;;;;;;0.60;96.37;96551.09;5055099;28;20654;-78
2021/03/17 03:47:53;;;;;;;23.50;13.30;;;;;;;0.56;96.07;96544.44;5086745;28;20489;-79
2021/03/17 03:50:22;;;;;;;22.53;14.17;;;;;;;0.65;96.33;96538.72;5059183;28;20523;-78
2021/03/17 03:53:30;;;;;;;23.13;14.20;;;;;;;0.62;95.74;96546.66;5057758;28;20531;-77
2021/03/17 03:56:04;;;;;;;25.13;15.53;;;;;;;0.67;95.85;96548.97;5051417;28;20473;-78
2021/03/17 03:58:33;;;;;;;22.60;13.70;;;;;;;0.70;96.36;96552.25;5055512;28;21014;-77
2021/03/17 04:01:08;;;;;;;24.10;13.73;;;;;;;0.70;95.76;96561.75;5084511;28;20450;-77
2021/03/17 04:03:37;;;;;;;22.23;13.70;;;;;;;0.66;96.05;96555.91;5091989;28;20508;-77
2021/03/17 04:06:05;;;;;;;20.13;13.80;;;;;;;0.69;95.52;96547.97;5085527;28;20454;-77
2021/03/17 04:08:36;;;;;;;21.73;13.57;;;;;;;0.64;96.07;96550.00;5067483;28;21007;-77
2021/03/17 04:11:03;;;;;;;22.60;14.00;;;;;;;0.72;96.22;96554.72;5065213;28;20462;-79
2021/03/17 04:13:32;;;;;;;19.73;13.03;;;;;;;0.70;96.31;96557.44;5080577;28;20477;-77
2021/03/17 04:15:58;;;;;;;21.57;13.90;;;;;;;0.68;95.83;96561.03;5076110;28;20545;-77
2021/03/17 04:18:32;;;;;;;23.43;15.17;;;;;;;0.69;96.25;96555.75;5080229;28;20454;-78
2021/03/17 04:21:03;;;;;;;23.13;13.13;;;;;;;0.74;96.22;96558.06;5086864;28;20497;-78
2021/03/17 04:23:30;;;;;;;20.77;13.33;;;;;;;0.72;95.67;96553.91;5069824;28;20530;-77
2021/03/17 04:25:56;;;;;;;22.50;13.63;;;;;;;0.73;95.39;96555.56;5066353;28;20465;-78
2021/03/17 04:28:27;;;;;;;23.17;14.27;;;;;;;0.75;95.71;96548.53;5053945;28;20477;-80
2021/03/17 04:30:57;;;;;;;23.03;14.23;;;;;;;0.64;95.53;96552.59;5063175;28;20568;-77
2021/03/17 04:33:23;;;;;;;22.83;13.70;;;;;;;0.51;95.28;96551.66;5079926;28;20508;-78
2021/03/17 04:35:53;;;;;;;27.13;15.77;;;;;;;0.45;95.70;96557.19;5073441;28;20792;-80
2021/03/17 04:38:22;;;;;;;17.87;12.00;;;;;;;0.41;95.60;96561.72;5072999;28;20040;-80
2021/03/17 04:40:49;;;;;;;20.43;13.07;;;;;;;0.31;95.59;96570.09;5072538;28;20446;-77
2021/03/17 04:43:16;;;;;;;21.90;13.20;;;;;;;0.20;95.39;96568.09;5073226;28;20463;-77
2021/03/17 04:45:42;;;;;;;18.20;11.77;;;;;;;0.20;95.44;96568.97;5060173;28;20466;-77
2021/03/17 04:48:08;;;;;;;17.60;11.80;;;;;;;0.18;95.67;96568.19;5077308;28;20466;-78
2021/03/17 04:50:37;;;;;;;17.63;11.00;;;;;;;0.18;95.65;96568.19;5081468;28;20445;-77
2021/03/17 04:53:10;;;;;;;20.03;11.60;;;;;;;0.22;95.55;96569.69;5075475;28;20454;-77
2021/03/17 04:55:36;;;;;;;;;;;;;;;0.19;95.84;96572.44;5079764;28;20543;-77
2021/03/17 04:58:02;;;;;;;17.40;10.37;;;;;;;0.18;95.36;96573.38;5090442;28;20015;-78
2021/03/17 05:00:30;;;;;;;20.43;12.17;;;;;;;0.10;95.76;96566.97;5072726;28;20102;-77
2021/03/17 05:03:01;;;;;;;20.73;12.33;;;;;;;0.12;96.02;96565.97;5065400;28;20554;-79
2021/03/17 05:05:32;;;;;;;21.80;13.23;;;;;;;0.15;95.74;96576.13;5073719;28;20460;-77
2021/03/17 05:07:59;;;;;;;21.73;12.80;;;;;;;0.26;96.08;96575.50;5062169;28;20475;-79
2021/03/17 05:10:27;;;;;;;21.13;12.67;;;;;;;0.22;95.42;96572.28;5079130;28;20550;-77
2021/03/17 05:12:53;;;;;;;18.20;11.67;;;;;;;0.22;95.92;96584.38;5081348;28;20853;-77
2021/03/17 05:15:20;;;;;;;20.37;13.13;;;;;;;0.14;95.71;96579.66;5079063;28;20458;-77
2021/03/17 05:17:48;;;;;;;21.27;11.70;;;;;;;0.17;95.67;96589.81;5077953;28;21091;-77
2021/03/17 05:20:19;;;;;;;23.97;15.70;;;;;;;0.18;95.07;96591.47;5093161;28;20480;-77
2021/03/17 05:22:47;;;;;;;27.33;14.00;;;;;;;0.21;95.78;96591.31;5083039;28;20808;-78
2021/03/17 05:25:18;;;;;;;21.33;12.00;;;;;;;0.20;95.93;96584.47;5074387;28;20997;-78
2021/03/17 05:27:49;;;;;;;19.07;11.27;;;;;;;0.13;95.82;96582.31;5098039;28;20469;-78
2021/03/17 05:30:18;;;;;;;20.10;12.43;;;;;;;0.15;95.75;96575.31;5071001;28;20478;-80
2021/03/17 05:32:46;;;;;;;20.67;11.90;;;;;;;0.12;96.08;96586.66;5078947;28;20446;-77
2021/03/17 05:35:13;;;;;;;21.17;12.87;;;;;;;0.01;95.98;96583.84;5053442;28;21010;-77
2021/03/17 05:37:39;;;;;;;20.87;12.97;;;;;;;0.11;96.15;96595.34;5080404;28;20486;-77
2021/03/17 05:40:08;;;;;;;21.67;13.27;;;;;;;0.11;95.65;96589.34;5078655;28;20481;-78
2021/03/17 05:42:34;;;;;;;20.23;12.77;;;;;;;0.15;96.13;96589.06;5068476;28;20874;-77
2021/03/17 05:45:00;;;;;;;21.87;12.87;;;;;;;0.16;96.02;96597.66;5064994;28;20455;-79
2021/03/17 05:47:26;;;;;;;22.03;12.33;;;;;;;0.14;95.94;96604.69;5080241;28;20028;-77
2021/03/17 05:49:52;;;;;;;30.07;13.87;;;;;;;0.08;95.87;96603.25;5062072;28;20375;-77
2021/03/17 05:52:19;;;;;;;29.50;14.67;;;;;;;0.01;95.78;96616.63;5078466;28;20451;-77
2021/03/17 05:54:46;;;;;;;25.77;13.63;;;;;;;-0.02;96.37;96625.38;5071245;28;20466;-77
2021/03/17 05:57:13;;;;;;;24.70;14.10;;;;;;;0.02;96.17;96616.53;5086164;28;20476;-77
2021/03/17 05:59:40;;;;;;;23.43;13.17;;;;;;;0.05;96.27;96623.28;5081917;28;20525;-77
2021/03/17 06:02:08;;;;;;;23.17;14.10;;;;;;;0.07;96.57;96629.19;5073110;28;20458;-77
2021/03/17 06:04:37;;;;;;;28.37;16.87;;;;;;;0.21;96.25;96616.34;5081989;28;20991;-78
2021/03/17 06:07:10;;;;;;;30.60;16.87;;;;;;;0.17;96.39;96630.38;5079270;28;20462;-77
2021/03/17 06:09:36;;;;;;;24.90;14.83;;;;;;;0.17;95.29;96635.53;5080344;28;20505;-77
2021/03/17 06:12:07;;;;;;;24.83;14.77;;;;;;;0.23;96.10;96628.28;5078597;28;20859;-80
2021/03/17 06:14:34;;;;;;;27.50;14.40;;;;;;;0.16;95.60;96639.84;5072451;28;20566;-83
2021/03/17 06:17:05;;;;;;;28.33;14.60;;;;;;;0.14;95.39;96633.13;5076899;28;20457;-76
2021/03/17 06:19:40;;;;;;;28.50;16.00;;;;;;;0.25;95.73;96648.03;5072195;28;20880;-78
2021/03/17 06:22:07;;;;;;;28.13;15.73;;;;;;;0.28;95.54;96653.03;5074205;28;20462;-77
2021/03/17 06:24:34;;;;;;;30.80;16.07;;;;;;;0.33;94.98;96640.66;5055510;28;20462;-77
2021/03/17 06:27:02;;;;;;;25.00;14.87;;;;;;;0.34;95.33;96648.34;5063147;28;20478;-77
2021/03/17 06:29:31;;;;;;;31.70;18.07;;;;;;;0.43;95.18;96647.81;5061761;28;20470;-77
2021/03/17 06:31:56;;;;;;;32.37;17.07;;;;;;;0.58;94.92;96651.31;5069665;28;20466;-78
2021/03/17 06:34:22;;;;;;;34.03;18.37;;;;;;;0.59;95.04;96652.13;5075470;28;20466;-78
2021/03/17 06:36:54;;;;;;;25.17;14.97;;;;;;;0.62;94.49;96649.38;5076441;28;20089;-78
2021/03/17 06:39:21;;;;;;;32.37;16.40;;;;;;;0.96;94.05;96652.59;5064588;28;20048;-77
2021/03/17 06:41:53;;;;;;;29.50;15.27;;;;;;;1.12;92.33;96650.75;5076971;28;20450;-78
2021/03/17 06:44:26;;;;;;;23.13;14.43;;;;;;;1.14;91.13;96651.50;5073577;28;21033;-81
2021/03/17 06:47:10;;;;;;;;;;;;;;;1.40;90.51;96649.94;5077048;28;20491;-77
2021/03/17 06:49:38;;;;;;;29.52;14.98;;;;;;;2.24;89.40;96643.88;5074784;28;20015;-78
2021/03/17 06:52:33;;;;;;;23.20;13.93;;;;;;;2.54;84.58;96634.09;5059729;28;20107;-78
2021/03/17 06:55:07;;;;;;;21.17;12.67;;;;;;;3.35;83.58;96635.63;5078079;28;20784;-77
2021/03/17 06:57:34;;;;;;;22.40;13.37;;;;;;;3.68;81.10;96631.66;5073494;28;21067;-77
2021/03/17 07:00:22;;;;;;;19.67;13.23;;;;;;;4.79;78.30;96630.56;5078275;28;20448;-79
2021/03/17 07:03:04;;;;;;;20.40;12.33;;;;;;;5.40;74.27;96630.38;5050928;28;20574;-78
2021/03/17 07:05:33;;;;;;;18.80;12.07;;;;;;;5.09;76.33;96634.44;5070906;28;20037;-78
2021/03/17 07:07:59;;;;;;;15.37;9.67;;;;;;;4.48;76.92;96638.03;5055314;28;20975;-77
2021/03/17 07:10:33;;;;;;;15.90;10.83;;;;;;;4.82;75.36;96634.72;5056776;28;20043;-77
2021/03/17 07:13:04;;;;;;;20.23;10.40;;;;;;;3.56;76.70;96637.72;5064465;28;20024;-78
2021/03/17 07:15:34;;;;;;;17.53;10.87;;;;;;;3.57;79.00;96642.81;5067141;28;20112;-77
2021/03/17 07:18:17;;;;;;;21.67;12.30;;;;;;;4.90;76.95;96638.44;5059824;28;20028;-77
2021/03/17 07:21:04;;;;;;;19.65;11.35;;;;;;;5.30;73.14;96635.44;5070696;28;20047;-77
2021/03/17 07:23:42;;;;;;;19.53;11.13;;;;;;;5.29;73.32;96638.16;5052390;28;20261;-77
2021/03/17 07:26:22;;;;;;;17.37;11.00;;;;;;;4.66;77.10;96642.84;5063612;28;20043;-77
2021/03/17 07:28:51;;;;;;;22.77;9.30;;;;;;;4.59;73.65;96644.25;5053511;28;20048;-77
2021/03/17 07:31:23;;;;;;;14.70;9.17;;;;;;;4.28;76.54;96641.25;5070232;28;20032;-78
2021/03/17 07:33:49;;;;;;;16.53;9.40;;;;;;;3.85;75.75;96648.69;5055828;28;20029;-77
2021/03/17 07:36:33;;;;;;;14.00;8.93;;;;;;;3.61;76.51;96652.06;5077840;28;20031;-78
2021/03/17 07:39:05;;;;;;;14.30;8.43;;;;;;;4.02;78.19;96648.31;5075502;28;20055;-77
2021/03/17 07:41:33;;;;;;;16.43;9.10;;;;;;;5.37;71.41;96641.03;5055977;28;20381;-77
2021/03/17 07:43:59;;;;;;;13.93;7.53;;;;;;;5.01;70.44;96644.63;5090175;28;20104;-77
2021/03/17 07:46:25;;;;;;;13.50;8.17;;;;;;;5.60;68.24;96642.69;5057099;28;20064;-77
2021/03/17 07:48:51;;;;;;;14.27;7.87;;;;;;;6.24;66.06;96642.06;5074876;28;21107;-77
2021/03/17 07:51:21;;;;;;;12.50;7.53;;;;;;;5.80;65.73;96646.38;5058314;28;20028;-77
2021/03/17 07:53:53;;;;;;;11.20;5.97;;;;;;;5.57;65.00;96653.38;5071261;28;20569;-78
2021/03/17 07:56:24;;;;;;;10.30;5.80;;;;;;;6.32;65.24;96646.66;5074911;28;20032;-77
2021/03/17 07:58:52;;;;;;;11.90;5.60;;;;;;;6.48;64.24;96646.28;5075063;28;20032;-77
2021/03/17 08:01:19;;;;;;;13.43;6.83;;;;;;;6.63;61.81;96649.44;5070280;28;20032;-76
2021/03/17 08:03:46;;;;;;;10.87;6.00;;;;;;;6.34;61.64;96643.00;5071549;28;20090;-76
2021/03/17 08:06:20;;;;;;;12.77;6.97;;;;;;;7.39;60.97;96650.09;5070312;28;20037;-76
2021/03/17 08:08:48;;;;;;;10.20;6.00;;;;;;;8.56;57.67;96631.22;5074248;28;20914;-77
2021/03/17 08:11:19;;;;;;;9.63;5.10;;;;;;;8.38;57.41;96632.84;5057869;28;20036;-76
2021/03/17 08:13:48;;;;;;;17.03;9.23;;;;;;;7.91;56.85;96637.78;5073836;28;20059;-78
2021/03/17 08:16:18;;;;;;;14.10;8.53;;;;;;;8.58;56.30;96631.88;5068305;28;20032;-77
2021/03/17 08:18:45;;;;;;;9.87;4.23;;;;;;;7.80;52.46;96629.06;5073950;28;20082;-76
2021/03/17 08:21:12;;;;;;;9.40;6.20;;;;;;;8.26;51.11;96632.94;5069616;28;20059;-76
2021/03/17 08:23:50;;;;;;;8.60;3.77;;;;;;;8.92;52.87;96629.72;5079013;28;20322;-77
2021/03/17 08:26:24;;;;;;;10.03;4.40;;;;;;;9.05;51.59;96636.44;5087645;28;20051;-76
2021/03/17 08:28:52;;;;;;;7.73;4.00;;;;;;;8.87;52.42;96633.69;5095371;28;20036;-77
2021/03/17 08:31:54;;;;;;;7.20;3.77;;;;;;;8.60;50.86;96631.78;5080501;28;20032;-77
2021/03/17 08:34:21;;;;;;;5.93;2.73;;;;;;;6.40;54.83;96635.59;5029423;28;20405;-76
2021/03/17 08:36:52;;;;;;;7.70;3.40;;;;;;;5.61;56.08;96641.75;5063198;28;20063;-77
2021/03/17 08:39:30;;;;;;;8.70;2.60;;;;;;;4.89;59.82;96638.53;5075745;28;20036;-76
2021/03/17 08:42:02;;;;;;;5.23;2.50;;;;;;;5.37;59.15;96636.63;5080594;28;20028;-76
2021/03/17 08:44:43;;;;;;;6.30;2.60;;;;;;;7.21;54.72;96636.75;5083801;28;20086;-77
2021/03/17 08:47:23;;;;;;;6.97;2.43;;;;;;;7.41;55.28;96637.72;5083973;28;20304;-76
2021/03/17 08:50:19;;;;;;;5.55;2.40;;;;;;;6.18;56.90;96642.56;5103509;28;20047;-77
2021/03/17 08:52:48;;;;;;;5.87;2.20;;;;;;;5.13;56.65;96638.47;5060652;28;20679;-77
2021/03/17 08:55:17;;;;;;;5.03;2.23;;;;;;;5.38;56.43;96645.28;5077606;28;20218;-76
2021/03/17 08:58:02;;;;;;;6.93;2.47;;;;;;;6.63;53.10;96633.75;5056054;28;20101;-76
2021/03/17 09:00:41;;;;;;;6.53;2.07;;;;;;;6.74;50.67;96637.16;5069697;28;20139;-77
2021/03/17 09:03:08;;;;;;;5.80;2.10;;;;;;;6.10;52.40;96637.94;5072920;28;20071;-77
2021/03/17 09:05:33;;;;;;;6.30;2.53;;;;;;;5.97;53.00;96637.25;5068399;28;20029;-77
2021/03/17 09:08:10;;;;;;;4.80;2.27;;;;;;;6.14;53.12;96644.56;5068849;28;20063;-77
2021/03/17 09:10:41;;;;;;;5.17;2.00;;;;;;;6.07;53.08;96637.34;5078627;28;20119;-77
2021/03/17 09:13:07;;;;;;;7.63;2.47;;;;;;;5.61;52.48;96633.09;5075144;28;20028;-78
2021/03/17 09:15:50;;;;;;;5.83;2.07;;;;;;;6.66;52.44;96634.31;5073632;28;20032;-77
2021/03/17 09:18:20;;;;;;;5.55;1.88;;;;;;;6.12;52.73;96633.41;5068176;28;20089;-77
2021/03/17 09:20:49;;;;;;;7.10;2.30;;;;;;;6.52;51.99;96625.00;5053935;28;20047;-78
2021/03/17 09:23:23;;;;;;;4.57;2.13;;;;;;;6.14;51.14;96628.91;5079621;28;20032;-77
2021/03/17 09:25:59;;;;;;;;;;;;;;;6.35;52.34;96620.31;5074190;28;20040;-77
2021/03/17 09:28:29;;;;;;;4.00;1.50;;;;;;;6.46;47.77;96629.88;5078053;28;20720;-77
2021/03/17 09:30:58;;;;;;;7.53;1.90;;;;;;;6.56;46.28;96623.78;5057093;28;20555;-77
2021/03/17 09:33:41;;;;;;;3.90;1.50;;;;;;;7.02;47.46;96627.03;5058178;28;20044;-77
2021/03/17 09:36:09;;;;;;;4.93;1.98;;;;;;;6.70;48.91;96633.09;5085383;28;20032;-77
2021/03/17 09:38:44;;;;;;;4.40;1.80;;;;;;;5.87;47.90;96631.06;5074134;28;20112;-77
2021/03/17 09:41:22;;;;;;;3.83;1.57;;;;;;;5.44;49.90;96637.00;5071710;28;20033;-79
2021/03/17 09:44:07;;;;;;;5.90;2.40;;;;;;;5.23;50.56;96636.88;5055933;28;20137;-77
2021/03/17 09:46:36;;;;;;;5.43;2.10;;;;;;;4.37;51.73;96642.38;5077511;28;20446;-77
2021/03/17 09:49:13;;;;;;;7.37;2.57;;;;;;;4.87;51.51;96643.88;5075020;28;20025;-79
2021/03/17 09:51:42;;;;;;;7.37;2.60;;;;;;;4.65;53.09;96647.22;5075208;28;20519;-77
2021/03/17 09:54:11;;;;;;;6.20;1.97;;;;;;;4.59;52.73;96650.28;5083724;28;20023;-78
2021/03/17 09:56:47;;;;;;;7.23;4.20;;;;;;;5.06;53.05;96645.09;5068966;28;20429;-79
2021/03/17 09:59:19;;;;;;;6.73;2.53;;;;;;;4.71;53.24;96651.16;5058773;28;20451;-77
2021/03/17 10:01:50;;;;;;;4.93;1.63;;;;;;;4.68;54.89;96654.81;5079107;28;20043;-77
2021/03/17 10:04:31;;;;;;;4.67;1.60;;;;;;;4.60;53.11;96651.13;5068198;28;20035;-77
2021/03/17 10:06:58;;;;;;;6.07;1.70;;;;;;;4.73;53.13;96644.09;5075294;28;20111;-78
2021/03/17 10:09:29;;;;;;;5.90;2.47;;;;;;;4.42;53.73;96643.69;5077524;28;20033;-77
2021/03/17 10:12:01;;;;;;;3.77;2.00;;;;;;;4.61;54.61;96642.38;5076129;28;20048;-78
2021/03/17 10:14:27;;;;;;;4.30;2.00;;;;;;;5.19;54.14;96648.44;5073837;28;20063;-77
2021/03/17 10:16:54;;;;;;;4.87;1.43;;;;;;;4.81;51.71;96646.94;5080738;28;20040;-79
2021/03/17 10:19:20;;;;;;;8.73;2.27;;;;;;;5.18;52.26;96641.59;5052550;28;20036;-77
2021/03/17 10:21:47;;;;;;;5.23;1.93;;;;;;;5.42;52.08;96634.50;5070447;28;20024;-78
2021/03/17 10:24:13;;;;;;;5.87;2.03;;;;;;;5.93;50.94;96635.81;5068469;28;20036;-78
2021/03/17 10:26:40;;;;;;;5.87;2.07;;;;;;;5.64;50.76;96628.47;5070116;28;20393;-77
2021/03/17 10:29:07;;;;;;;4.90;1.80;;;;;;;5.56;50.92;96636.03;5056823;28;20035;-79
2021/03/17 10:31:35;;;;;;;5.63;1.90;;;;;;;5.65;51.54;96629.28;5074734;28;20064;-77
2021/03/17 10:34:12;;;;;;;4.07;1.80;;;;;;;5.49;50.53;96634.84;5083926;28;20200;-78
2021/03/17 10:36:40;;;;;;;5.73;1.53;;;;;;;5.77;50.82;96632.72;5076692;28;20032;-78
2021/03/17 10:39:06;;;;;;;4.33;1.60;;;;;;;5.29;52.58;96640.75;5065081;28;20036;-77
2021/03/17 10:41:42;;;;;;;4.47;1.70;;;;;;;4.99;50.77;96636.91;5055187;28;20085;-77
2021/03/17 10:44:16;;;;;;;5.30;1.70;;;;;;;5.17;51.46;96638.16;5075833;28;20040;-77
2021/03/17 10:47:03;;;;;;;7.27;1.57;;;;;;;6.01;55.09;96624.78;5071836;28;20039;-79
2021/03/17 10:49:30;;;;;;;3.30;1.10;;;;;;;5.35;48.04;96633.31;5069672;28;20167;-77
2021/03/17 10:51:57;;;;;;;3.73;1.67;;;;;;;5.42;48.65;96636.28;5059046;28;20027;-78
2021/03/17 10:54:37;;;;;;;4.03;1.90;;;;;;;5.39;50.44;96628.69;5065116;28;20074;-77
2021/03/17 10:57:04;;;;;;;3.67;1.50;;;;;;;5.96;49.34;96625.13;5081401;28;20096;-77
2021/03/17 10:59:39;;;;;;;4.67;1.73;;;;;;;5.44;53.90;96635.22;5085127;28;20027;-77
2021/03/17 11:02:30;;;;;;;7.47;2.53;;;;;;;6.05;55.67;96639.25;5079863;28;20036;-77
2021/03/17 11:05:05;;;;;;;9.50;2.60;;;;;;;6.37;52.45;96629.69;5079958;28;20036;-76
2021/03/17 11:07:53;;;;;;;6.40;2.47;;;;;;;6.43;52.81;96630.13;5071665;28;20065;-77
2021/03/17 11:10:32;;;;;;;9.43;2.70;;;;;;;6.48;53.33;96635.81;5072859;28;20108;-78
2021/03/17 11:13:21;;;;;;;7.47;3.57;;;;;;;6.00;53.61;96633.53;5085917;28;20504;-78
2021/03/17 11:15:58;;;;;;;7.23;2.63;;;;;;;5.68;53.27;96631.66;5071245;28;20355;-77
2021/03/17 11:18:36;;;;;;;8.37;3.70;;;;;;;5.85;54.40;96631.16;5074386;28;20139;-78
2021/03/17 11:21:23;;;;;;;6.60;2.10;;;;;;;5.51;53.88;96632.13;5063299;28;20032;-79
2021/03/17 11:23:50;;;;;;;12.67;6.27;;;;;;;5.02;54.77;96634.06;5086346;28;20024;-77
2021/03/17 11:26:27;;;;;;;8.80;4.47;;;;;;;5.19;54.49;96624.97;5060589;28;20044;-77
2021/03/17 11:28:54;;;;;;;6.50;2.17;;;;;;;5.54;54.38;96611.03;5074877;28;20089;-78
2021/03/17 11:31:32;;;;;;;7.27;3.23;;;;;;;5.78;53.11;96616.94;5076341;28;20032;-77
2021/03/17 11:33:59;;;;;;;12.80;7.00;;;;;;;5.91;54.74;96619.44;5071958;28;20021;-76
2021/03/17 11:36:27;;;;;;;20.33;10.80;;;;;;;5.58;53.79;96618.50;5068265;28;20028;-80
2021/03/17 11:38:55;;;;;;;7.97;2.47;;;;;;;5.91;54.60;96614.22;5071797;28;20033;-77
2021/03/17 11:41:21;;;;;;;5.00;1.90;;;;;;;6.56;53.67;96604.66;5073948;28;20025;-78
2021/03/17 11:43:47;;;;;;;10.70;5.57;;;;;;;6.10;52.17;96616.19;5077469;28;20039;-78
2021/03/17 11:46:17;;;;;;;4.83;2.10;;;;;;;6.70;52.08;96612.19;5058252;28;20032;-77
2021/03/17 11:48:42;;;;;;;7.87;2.90;;;;;;;6.19;53.32;96605.03;5085126;28;20117;-78
2021/03/17 11:51:08;;;;;;;4.90;2.20;;;;;;;6.95;52.32;96600.56;5078508;28;20397;-75
2021/03/17 11:53:36;;;;;;;6.57;2.17;;;;;;;7.21;51.73;96598.38;5074540;28;20611;-78
2021/03/17 11:56:03;;;;;;;7.37;2.53;;;;;;;7.46;51.22;96597.13;5066486;28;20032;-78